createdAt,value
2018-03-25T00:00:27.553Z,3.70
2018-03-25T00:02:55.510Z,3.73
2018-03-25T00:05:23.835Z,3.87
2018-03-25T00:07:51.404Z,3.70
2018-03-25T00:10:19.906Z,4.20
2018-03-25T00:12:47.531Z,4.10
2018-03-25T00:15:15.068Z,3.50
2018-03-25T00:17:43.414Z,3.57
2018-03-25T00:20:10.991Z,3.70
2018-03-25T00:22:38.559Z,3.80
2018-03-25T00:25:06.115Z,3.87
2018-03-25T00:27:34.157Z,3.80
2018-03-25T00:30:01.737Z,3.70
2018-03-25T00:32:29.294Z,3.53
2018-03-25T00:34:56.872Z,3.50
2018-03-25T00:37:24.447Z,3.50
2018-03-25T00:39:52.028Z,3.50
2018-03-25T00:42:19.609Z,3.77
2018-03-25T00:44:47.164Z,3.57
2018-03-25T00:47:14.728Z,3.27
2018-03-25T00:49:42.315Z,3.37
2018-03-25T00:52:10.021Z,3.43
2018-03-25T00:54:37.684Z,3.80
2018-03-25T00:57:05.352Z,3.60
2018-03-25T00:59:32.907Z,3.53
2018-03-25T01:02:00.467Z,3.80
2018-03-25T01:04:28.056Z,3.70
2018-03-25T01:06:55.621Z,3.80
2018-03-25T01:09:23.216Z,3.40
2018-03-25T01:11:50.782Z,3.50
2018-03-25T01:14:18.353Z,3.57
2018-03-25T01:16:45.946Z,3.63
2018-03-25T01:19:13.520Z,3.60
2018-03-25T01:21:41.101Z,3.40
2018-03-25T01:24:08.675Z,3.33
2018-03-25T01:26:36.297Z,3.30
2018-03-25T01:29:04.205Z,3.70
2018-03-25T01:31:32.540Z,3.47
2018-03-25T01:34:00.130Z,3.67
2018-03-25T01:36:27.713Z,3.43
2018-03-25T01:38:56.025Z,3.40
2018-03-25T01:41:23.632Z,3.40
2018-03-25T01:43:51.261Z,3.40
2018-03-25T01:46:18.818Z,3.40
2018-03-25T01:48:46.380Z,3.77
2018-03-25T01:51:13.944Z,3.90
2018-03-25T01:53:41.539Z,3.53
2018-03-25T01:56:09.092Z,3.40
2018-03-25T01:58:36.760Z,3.60
2018-03-25T02:01:04.334Z,3.60
2018-03-25T02:03:31.896Z,3.73
2018-03-25T02:05:59.488Z,3.20
2018-03-25T02:08:27.051Z,3.70
2018-03-25T02:10:54.608Z,3.63
2018-03-25T02:13:22.174Z,3.70
2018-03-25T02:15:49.823Z,3.40
2018-03-25T02:18:17.422Z,3.40
2018-03-25T02:20:44.988Z,3.60
2018-03-25T02:23:12.530Z,3.33
2018-03-25T02:25:40.099Z,3.50
2018-03-25T02:28:07.657Z,3.50
2018-03-25T02:30:35.592Z,3.17
2018-03-25T02:33:03.933Z,3.57
2018-03-25T02:35:31.510Z,3.40
2018-03-25T02:37:59.062Z,3.37
2018-03-25T02:40:26.622Z,3.50
2018-03-25T02:42:54.275Z,3.47
2018-03-25T02:45:21.831Z,3.33
2018-03-25T02:47:49.389Z,3.40
2018-03-25T02:50:16.962Z,3.50
2018-03-25T02:52:44.522Z,3.20
2018-03-25T02:55:12.117Z,3.40
2018-03-25T02:57:39.667Z,3.27
2018-03-25T03:00:07.232Z,3.70
2018-03-25T03:02:34.834Z,3.63
2018-03-25T03:05:02.341Z,3.40
2018-03-25T03:07:30.112Z,3.87
2018-03-25T03:09:57.689Z,3.40
2018-03-25T03:12:25.236Z,3.70
2018-03-25T03:14:52.801Z,3.53
2018-03-25T03:17:21.161Z,3.30
2018-03-25T03:19:48.732Z,3.60
2018-03-25T03:22:17.050Z,3.47
2018-03-25T03:24:44.632Z,3.60
2018-03-25T03:27:12.209Z,3.30
2018-03-25T03:29:39.778Z,3.40
2018-03-25T03:32:07.706Z,3.87
2018-03-25T03:34:36.030Z,3.40
2018-03-25T03:37:03.598Z,3.50
2018-03-25T03:39:31.157Z,3.50
2018-03-25T03:41:58.755Z,3.80
2018-03-25T03:44:26.340Z,3.60
2018-03-25T03:46:54.669Z,3.60
2018-03-25T03:49:22.233Z,3.20
2018-03-25T03:51:49.793Z,3.47
2018-03-25T03:54:17.348Z,3.63
2018-03-25T03:56:44.952Z,3.40
2018-03-25T03:59:12.518Z,3.47
2018-03-25T04:01:40.069Z,3.73
2018-03-25T04:04:07.653Z,3.47
2018-03-25T04:06:35.218Z,3.60
2018-03-25T04:09:02.862Z,3.53
2018-03-25T04:11:30.445Z,3.80
2018-03-25T04:13:58.006Z,3.63
2018-03-25T04:16:25.566Z,3.53
2018-03-25T04:18:53.253Z,3.70
2018-03-25T04:21:20.850Z,3.57
2018-03-25T04:23:49.207Z,3.60
2018-03-25T04:26:16.914Z,3.60
2018-03-25T04:28:45.234Z,4.00
2018-03-25T04:31:12.910Z,3.80
2018-03-25T04:33:40.482Z,3.70
2018-03-25T04:36:08.046Z,3.40
2018-03-25T04:38:35.780Z,4.10
2018-03-25T04:41:03.395Z,4.00
2018-03-25T04:43:30.908Z,3.90
2018-03-25T04:45:58.494Z,3.60
2018-03-25T04:48:26.075Z,3.80
2018-03-25T04:50:53.623Z,4.00
2018-03-25T04:53:21.184Z,3.40
2018-03-25T04:55:48.835Z,3.73
2018-03-25T04:58:16.428Z,3.47
2018-03-25T05:00:44.173Z,3.93
2018-03-25T05:03:11.735Z,4.00
2018-03-25T05:05:39.306Z,3.90
2018-03-25T05:08:06.880Z,3.63
2018-03-25T05:10:34.453Z,3.90
2018-03-25T05:13:02.008Z,4.10
2018-03-25T05:15:29.570Z,3.73
2018-03-25T05:17:57.143Z,3.97
2018-03-25T06:18:23.333Z,4.13
2018-03-25T06:20:57.319Z,4.13
2018-03-25T06:23:30.405Z,3.77
2018-03-25T06:26:03.199Z,3.67
2018-03-25T06:28:37.298Z,4.13
2018-03-25T06:31:04.875Z,3.87
2018-03-25T06:33:38.453Z,3.80
2018-03-25T06:36:19.130Z,3.70
2018-03-25T06:38:56.709Z,3.70
2018-03-25T06:41:24.284Z,3.70
2018-03-25T06:43:55.340Z,4.20
2018-03-25T06:46:23.112Z,3.70
2018-03-25T06:48:56.051Z,3.50
2018-03-25T06:51:28.392Z,3.33
2018-03-25T06:56:48.109Z,3.53
2018-03-25T06:59:19.977Z,3.70
2018-03-25T07:01:57.180Z,3.70
2018-03-25T07:04:38.765Z,3.57
2018-03-25T07:07:26.403Z,3.33
2018-03-25T07:10:01.477Z,3.67
2018-03-25T07:15:27.293Z,3.67
2018-03-25T07:18:02.219Z,3.23
2018-03-25T07:20:40.149Z,3.47
2018-03-25T07:23:19.354Z,3.40
2018-03-25T07:25:56.795Z,3.30
2018-03-25T07:31:13.474Z,3.17
2018-03-25T07:33:50.802Z,3.20
2018-03-25T07:36:18.283Z,3.37
2018-03-25T07:38:55.351Z,3.60
2018-03-25T07:41:22.869Z,3.40
2018-03-25T07:44:06.040Z,3.20
2018-03-25T07:49:44.713Z,3.40
2018-03-25T07:52:12.584Z,3.00
2018-03-25T07:54:44.447Z,3.60
2018-03-25T07:57:18.709Z,3.50
2018-03-25T07:59:51.512Z,3.50
2018-03-25T08:02:19.004Z,3.20
2018-03-25T08:04:53.557Z,3.57
2018-03-25T08:07:21.942Z,3.60
2018-03-25T08:09:53.957Z,3.50
2018-03-25T08:12:21.461Z,3.77
2018-03-25T08:15:00.996Z,3.40
2018-03-25T08:17:35.262Z,3.20
2018-03-25T08:20:15.296Z,3.70
2018-03-25T08:22:56.511Z,3.73
2018-03-25T08:25:31.587Z,3.40
2018-03-25T08:28:14.431Z,3.40
2018-03-25T08:30:46.198Z,3.40
2018-03-25T08:33:16.027Z,3.33
2018-03-25T08:48:37.407Z,4.07
2018-03-25T08:51:05.786Z,4.00
2018-03-25T08:53:45.015Z,3.67
2018-03-25T08:56:31.237Z,4.13
2018-03-25T08:58:58.874Z,4.30
2018-03-25T09:01:28.227Z,3.70
2018-03-25T09:06:46.648Z,4.07
2018-03-25T09:09:21.440Z,3.83
2018-03-25T09:11:49.447Z,3.60
2018-03-25T09:14:16.951Z,3.57
2018-03-25T09:16:57.619Z,4.10
2018-03-25T09:22:37.606Z,3.80
2018-03-25T09:25:05.101Z,3.67
2018-03-25T09:27:57.756Z,3.70
2018-03-25T09:30:29.080Z,4.10
2018-03-25T09:39:03.562Z,4.20
2018-03-25T09:42:03.128Z,4.07
2018-03-25T10:00:05.149Z,3.93
2018-03-25T10:09:18.171Z,5.37
2018-03-25T10:33:17.652Z,21.70
2018-03-25T10:44:58.721Z,21.40
2018-03-25T11:02:52.611Z,26.90
2018-03-25T11:05:37.576Z,24.73
2018-03-25T11:08:24.632Z,29.07
2018-03-25T11:11:08.284Z,27.23
2018-03-25T11:13:35.776Z,29.60
2018-03-25T11:16:03.323Z,29.27
2018-03-25T11:18:38.635Z,28.53
2018-03-25T11:24:15.905Z,24.43
2018-03-25T11:27:02.887Z,22.30
2018-03-25T11:29:37.838Z,23.93
2018-03-25T11:32:05.394Z,21.43
2018-03-25T11:34:53.414Z,21.30
2018-03-25T11:37:23.263Z,20.73
2018-03-25T11:40:02.990Z,20.40
2018-03-25T11:42:37.181Z,19.87
2018-03-25T11:45:05.510Z,21.30
2018-03-25T11:47:46.280Z,24.50
2018-03-25T11:50:14.546Z,32.57
2018-03-25T11:52:46.462Z,22.50
2018-03-25T11:55:37.606Z,21.50
2018-03-25T11:58:08.395Z,34.30
2018-03-25T12:00:49.215Z,21.83
2018-03-25T12:03:24.283Z,32.73
2018-03-25T12:06:01.804Z,29.90
2018-03-25T12:08:40.909Z,24.17
2018-03-25T12:11:18.660Z,23.80
2018-03-25T12:13:48.405Z,21.23
2018-03-25T12:16:17.560Z,20.30
2018-03-25T12:19:01.755Z,20.63
2018-03-25T12:21:35.391Z,19.53
2018-03-25T12:24:09.103Z,19.50
2018-03-25T12:26:45.948Z,17.20
2018-03-25T12:29:19.536Z,17.63
2018-03-25T12:31:57.219Z,17.20
2018-03-25T12:34:24.740Z,16.73
2018-03-25T12:37:01.471Z,15.57
2018-03-25T12:39:38.912Z,16.43
2018-03-25T12:42:18.451Z,15.27
2018-03-25T12:44:56.033Z,14.90
2018-03-25T12:47:50.058Z,13.83
2018-03-25T12:50:20.355Z,14.53
2018-03-25T12:52:56.899Z,14.00
2018-03-25T12:55:24.390Z,14.30
2018-03-25T12:58:00.471Z,13.63
2018-03-25T13:00:35.635Z,14.00
2018-03-25T13:03:11.962Z,13.20
2018-03-25T13:05:53.782Z,12.97
2018-03-25T13:08:21.284Z,12.63
2018-03-25T13:10:55.210Z,12.90
2018-03-25T13:13:22.705Z,13.17
2018-03-25T13:16:00.648Z,12.43
2018-03-25T13:18:39.049Z,12.23
2018-03-25T13:21:07.322Z,12.57
2018-03-25T13:23:46.566Z,12.63
2018-03-25T13:26:17.121Z,11.50
2018-03-25T13:28:55.030Z,12.10
2018-03-25T13:31:23.302Z,12.60
2018-03-25T13:33:59.349Z,11.77
2018-03-25T13:36:32.998Z,11.40
2018-03-25T13:41:56.712Z,10.97
2018-03-25T13:44:24.199Z,11.20
2018-03-25T13:46:51.712Z,11.70
2018-03-25T13:49:22.504Z,11.70
2018-03-25T13:52:00.057Z,11.80
2018-03-25T13:54:39.627Z,11.13
2018-03-25T13:57:20.352Z,11.63
2018-03-25T13:59:59.785Z,11.60
2018-03-25T14:02:32.129Z,10.80
2018-03-25T14:05:15.525Z,10.57
2018-03-25T14:14:26.176Z,17.87
2018-03-25T14:22:43.621Z,13.17
2018-03-25T14:25:21.939Z,12.87
2018-03-25T14:30:51.849Z,12.40
2018-03-25T14:33:25.155Z,12.17
2018-03-25T14:35:53.434Z,12.67
2018-03-25T14:38:22.220Z,11.27
2018-03-25T14:40:59.631Z,10.53
2018-03-25T14:43:39.260Z,10.40
2018-03-25T14:46:06.773Z,10.17
2018-03-25T14:48:48.964Z,9.80
2018-03-25T14:51:23.147Z,10.00
2018-03-25T14:53:50.846Z,9.50
2018-03-25T14:56:18.367Z,12.83
2018-03-25T14:58:57.924Z,13.80
2018-03-25T15:01:33.565Z,12.60
2018-03-25T15:04:01.082Z,10.47
2018-03-25T15:06:38.721Z,9.67
2018-03-25T15:09:14.479Z,9.47
2018-03-25T15:11:45.503Z,9.53
2018-03-25T15:14:15.388Z,8.53
2018-03-25T15:16:55.114Z,9.10
2018-03-25T15:19:23.293Z,8.20
2018-03-25T15:21:59.084Z,8.67
2018-03-25T15:24:37.944Z,8.37
2018-03-25T15:27:22.571Z,8.07
2018-03-25T15:29:52.794Z,8.43
2018-03-25T15:32:20.386Z,8.13
2018-03-25T15:34:58.811Z,7.23
2018-03-25T15:37:35.409Z,7.73
2018-03-25T15:40:17.606Z,6.90
2018-03-25T15:42:56.590Z,7.20
2018-03-25T15:45:24.115Z,7.73
2018-03-25T15:48:01.859Z,7.47
2018-03-25T15:50:44.909Z,7.73
2018-03-25T15:53:17.700Z,7.20
2018-03-25T15:55:58.110Z,7.37
2018-03-25T15:58:27.365Z,6.90
2018-03-25T16:03:46.066Z,6.73
2018-03-25T16:06:17.736Z,6.97
2018-03-25T16:08:55.205Z,7.07
2018-03-25T16:11:23.250Z,6.57
2018-03-25T16:13:59.160Z,6.93
2018-03-25T16:16:36.809Z,6.30
2018-03-25T16:19:13.412Z,6.40
2018-03-25T16:24:22.179Z,6.23
2018-03-25T16:26:49.697Z,5.87
2018-03-25T16:29:17.202Z,6.97
2018-03-25T16:31:57.353Z,6.77
2018-03-25T16:34:28.742Z,6.03
2018-03-25T16:37:06.047Z,6.30
2018-03-25T16:39:40.344Z,6.13
2018-03-25T16:42:19.057Z,5.50
2018-03-25T16:44:57.855Z,5.33
2018-03-25T16:47:25.436Z,5.30
2018-03-25T16:50:01.854Z,5.13
2018-03-25T16:52:37.769Z,5.47
2018-03-25T16:55:13.432Z,5.30
2018-03-25T16:57:56.626Z,5.20
2018-03-25T17:00:24.203Z,5.80
2018-03-25T17:03:02.975Z,5.17
2018-03-25T17:05:42.341Z,4.73
2018-03-25T17:08:20.282Z,5.13
2018-03-25T17:10:56.177Z,5.13
2018-03-25T17:13:23.880Z,5.10
2018-03-25T17:16:02.236Z,4.43
2018-03-25T17:18:38.910Z,4.90
2018-03-25T17:21:17.748Z,5.00
2018-03-25T17:24:01.112Z,5.00
2018-03-25T17:26:42.814Z,4.83
2018-03-25T17:29:17.829Z,5.07
2018-03-25T17:31:56.274Z,4.70
2018-03-25T17:34:24.665Z,4.73
2018-03-25T17:37:02.441Z,4.67
2018-03-25T17:39:38.795Z,5.00
2018-03-25T17:45:19.676Z,11.87
2018-03-25T17:47:59.462Z,11.97
2018-03-25T17:50:32.851Z,12.17
2018-03-25T17:53:00.358Z,11.57
2018-03-25T17:55:32.909Z,8.53
2018-03-25T17:58:12.870Z,7.70
2018-03-25T18:00:50.723Z,6.70
2018-03-25T18:03:18.317Z,7.40
2018-03-25T18:08:53.669Z,6.23
2018-03-25T18:11:21.230Z,6.10
2018-03-25T18:14:01.388Z,6.00
2018-03-25T18:19:20.013Z,6.07
2018-03-25T18:21:58.720Z,5.00
2018-03-25T18:24:31.796Z,5.73
2018-03-25T18:27:08.031Z,5.53
2018-03-25T18:32:38.008Z,5.83
2018-03-25T18:35:05.583Z,5.53
2018-03-25T18:40:26.665Z,5.33
2018-03-25T18:43:05.569Z,4.70
2018-03-25T18:48:21.410Z,10.03
2018-03-25T18:51:01.865Z,10.07
2018-03-25T18:53:32.720Z,12.77
2018-03-25T18:58:59.964Z,8.77
2018-03-25T19:01:29.974Z,8.10
2018-03-25T19:06:46.121Z,7.67
2018-03-25T19:09:13.940Z,8.27
2018-03-25T19:11:47.673Z,8.57
2018-03-25T19:17:20.956Z,8.37
2018-03-25T19:20:07.733Z,7.23
2018-03-25T19:23:06.685Z,7.47
2018-03-25T19:40:36.428Z,6.97
2018-03-25T19:43:27.346Z,6.60
2018-03-25T19:46:10.663Z,6.90
2018-03-25T19:48:39.061Z,6.63
2018-03-25T19:51:31.336Z,6.97
2018-03-25T19:56:52.123Z,7.40
2018-03-25T19:59:20.097Z,7.37
2018-03-25T20:02:02.725Z,7.07
2018-03-25T20:04:33.308Z,6.83
2018-03-25T20:07:00.938Z,6.97
2018-03-25T20:09:29.601Z,7.20
2018-03-25T20:12:07.514Z,7.10
2018-03-25T20:14:48.420Z,6.77
2018-03-25T20:17:25.742Z,7.53
2018-03-25T20:19:54.034Z,6.73
2018-03-25T20:22:21.992Z,7.27
2018-03-25T20:25:05.928Z,7.07
2018-03-25T20:30:51.079Z,7.10
2018-03-25T20:33:25.932Z,6.87
2018-03-25T20:35:53.483Z,7.27
2018-03-25T20:38:21.061Z,7.30
2018-03-25T20:41:01.733Z,7.70
2018-03-25T20:43:30.137Z,7.40
2018-03-25T20:48:47.094Z,7.23
2018-03-25T20:51:23.544Z,6.60
2018-03-25T20:54:02.668Z,6.37
2018-03-25T20:56:31.603Z,6.40
2018-03-25T21:02:00.142Z,6.50
2018-03-25T21:04:39.565Z,7.40
2018-03-25T21:09:54.534Z,6.50
2018-03-25T21:12:22.100Z,6.77
2018-03-25T21:14:53.705Z,6.50
2018-03-25T21:17:21.214Z,6.70
2018-03-25T21:20:00.554Z,6.63
2018-03-25T21:22:32.662Z,6.90
2018-03-25T21:25:00.157Z,6.30
2018-03-25T21:27:34.878Z,6.90
2018-03-25T21:30:02.391Z,7.57
2018-03-25T21:35:26.713Z,6.97
2018-03-25T21:37:54.253Z,6.90
2018-03-25T21:40:31.209Z,7.90
2018-03-25T21:45:53.890Z,6.90
2018-03-25T21:48:21.645Z,6.80
2018-03-25T21:51:07.849Z,6.53
2018-03-25T21:53:38.624Z,7.13
2018-03-25T21:56:06.134Z,6.87
2018-03-25T22:01:24.848Z,6.93
2018-03-25T22:03:52.609Z,7.13
2018-03-25T22:06:21.013Z,7.20
2018-03-25T22:08:59.611Z,7.30
2018-03-25T22:20:57.941Z,7.20
2018-03-25T22:23:33.645Z,6.70
2018-03-25T22:26:02.628Z,6.90
2018-03-25T22:28:30.599Z,6.77
2018-03-25T22:31:09.146Z,6.83
2018-03-25T22:36:29.277Z,6.70
2018-03-25T22:38:57.215Z,6.97
2018-03-25T22:41:25.753Z,6.90
2018-03-25T22:44:05.518Z,7.33
2018-03-25T22:46:33.284Z,7.50
2018-03-25T22:49:05.664Z,6.90
2018-03-25T22:51:35.202Z,6.90
2018-03-25T22:54:03.459Z,7.13
2018-03-25T22:56:41.318Z,19.63
2018-03-25T22:59:20.416Z,35.93
2018-03-25T23:01:58.529Z,22.90
2018-03-25T23:04:26.869Z,19.83
2018-03-25T23:07:01.512Z,18.23
2018-03-25T23:09:38.117Z,17.47
2018-03-25T23:12:19.327Z,16.53
2018-03-25T23:14:55.500Z,16.20
2018-03-25T23:17:23.003Z,16.07
2018-03-25T23:19:55.393Z,15.63
2018-03-25T23:22:22.895Z,14.63
2018-03-25T23:24:59.571Z,15.23
2018-03-25T23:27:27.221Z,13.67
2018-03-25T23:29:59.622Z,13.57
2018-03-25T23:32:29.414Z,13.57
2018-03-25T23:35:04.986Z,13.33
2018-03-25T23:37:41.148Z,12.97
2018-03-25T23:40:13.386Z,13.67
2018-03-25T23:42:56.277Z,13.87
2018-03-25T23:45:24.635Z,12.33
2018-03-25T23:47:59.781Z,11.57
2018-03-25T23:50:32.165Z,12.17
2018-03-25T23:52:59.675Z,12.50
2018-03-25T23:55:33.202Z,11.63
2018-03-25T23:58:13.596Z,11.50
